Reuben, Nebraska
Current Conditions -  °F | °C
As of 5:15 AM on Monday 22 Dec 2014 (Local Time) from KHDE Reporting Station
Broken Clouds Broken Clouds  
Wind Chill: 29°   Ceiling: 11000
Heat Index: 37°   Visibility: 10mi
Dew Point: 33°   Wind: 12mph
Humidity: 87%   Direction: 320°NW
Pressure: 29.52"   Gusts: NA
Location:  40.2849°N, 99.6171°W
Report Text: KHDE 221115Z AUTO 32010KT 10SM SCT080 BKN110 03/01 A2952 RMK AO2 T00260007
Loading
Personal Weather Stations






























Interactive Weather Map New forecast layout! Learn more

10-Day Weather Forecast

Advertisements
Track Severe Weather on mobile